Šlapanice, Czech Republic

2:44 PM CEST on July 30, 2016 (GMT +0200)
Turany | | Change Station

Elev 807 ft 49.15 °N, 16.69 °E | Updated 14 minutes ago

Partly Cloudy
Partly Cloudy
82 °F
Feels Like 83 °F
N
6
Wind Variable Wind from South

Today
High -- | Low -- °F
--% Chance of Precip.
Yesterday
High -- | Low -- °F
Precip. -- in
Pressure 29.95 in
Visibility 6.2 miles
Clouds Few 4600 ft
Heat Index 83 °F
Dew Point 63 °F
Humidity 51%
Rainfall 0.00 in
Snow Depth Not available.
5:23 AM 8:35 PM
Waning Crescent, 13% visible
METAR LKTB 301230Z 19005KT 130V230 9999 FEW046TCU 28/17 Q1014 NOSIG
Pressure 29.95 in
Visibility 6.2 miles
Clouds Few 4600 ft
Heat Index 83 °F
Dew Point 63 °F
Humidity 51%
Rainfall 0.00 in
Snow Depth Not available.
5:23 AM 8:35 PM
Waning Crescent, 13% visible
METAR LKTB 301230Z 19005KT 130V230 9999 FEW046TCU 28/17 Q1014 NOSIG

10-Day Weather Forecast

×

Almanac

Astronomy

Jul. 30, 2016 Rise Set
Actual Time
Civil Twilight
Nautical Twilight
Astronomical Twilight
Moon
Length of Visible Light
Length of Day
Tomorrow will be .
, % of the Moon is Illuminated

Today's Extremes

Country Highs Country Lows

Community

WunderPhotos

Upload Photos

1,928,545 photos uploaded!

WunderBlog® & News

Nearby

Air Quality

  Air Quality AQ Index Pollutant
Not available.

Snow Depth

Station Depth Elevation

Earthquake Activity

City Distance Mag. Time & Date
Minimum magnitude displayed is 2.5.

Coastal Water Temperatures

Place Temperature

Stations

Nearby Weather Stations

Station Location Temp. Windchill Dew Point Humidity Wind Precip. Elev Updated Type